sensor_id;sensor_type;location;lat;lon;timestamp;pressure;altitude;pressure_sealevel;temperature;humidity
45255;BME280;30989;52.078;21.014;2023-10-13T00:01:53;165736.13;;;7.57;100.00
45255;BME280;30989;52.078;21.014;2023-10-13T00:04:20;165748.16;;;7.61;100.00
45255;BME280;30989;52.078;21.014;2023-10-13T00:06:54;165760.19;;;7.66;100.00
45255;BME280;30989;52.078;21.014;2023-10-13T00:09:25;165752.16;;;7.63;100.00
45255;BME280;30989;52.078;21.014;2023-10-13T00:11:52;165741.47;;;7.59;100.00
45255;BME280;30989;52.078;21.014;2023-10-13T00:14:19;165745.47;;;7.60;100.00
45255;BME280;30989;52.078;21.014;2023-10-13T00:16:46;165746.81;;;7.61;100.00
45255;BME280;30989;52.078;21.014;2023-10-13T00:19:37;165764.19;;;7.67;100.00
45255;BME280;30989;52.078;21.014;2023-10-13T00:22:23;165762.88;;;7.67;100.00
45255;BME280;30989;52.078;21.014;2023-10-13T00:24:50;165802.97;;;7.82;100.00
45255;BME280;30989;52.078;21.014;2023-10-13T00:27:21;165816.34;;;7.87;100.00
45255;BME280;30989;52.078;21.014;2023-10-13T00:30:04;165843.06;;;7.97;100.00
45255;BME280;30989;52.078;21.014;2023-10-13T00:32:52;165856.44;;;8.02;100.00
45255;BME280;30989;52.078;21.014;2023-10-13T00:35:22;165879.19;;;8.11;100.00
45255;BME280;30989;52.078;21.014;2023-10-13T00:37:54;165891.22;;;8.16;100.00
45255;BME280;30989;52.078;21.014;2023-10-13T00:40:23;165888.53;;;8.15;100.00
45255;BME280;30989;52.078;21.014;2023-10-13T00:42:55;165897.91;;;8.18;100.00
45255;BME280;30989;52.078;21.014;2023-10-13T00:45:30;165896.56;;;8.18;100.00
45255;BME280;30989;52.078;21.014;2023-10-13T00:47:59;165893.88;;;8.17;100.00
45255;BME280;30989;52.078;21.014;2023-10-13T00:50:26;165881.84;;;8.12;100.00
45255;BME280;30989;52.078;21.014;2023-10-13T00:52:53;165891.22;;;8.16;100.00
45255;BME280;30989;52.078;21.014;2023-10-13T00:55:21;165884.53;;;8.13;100.00
45255;BME280;30989;52.078;21.014;2023-10-13T00:57:52;165893.88;;;8.17;100.00
45255;BME280;30989;52.078;21.014;2023-10-13T01:00:22;165888.53;;;8.15;100.00
45255;BME280;30989;52.078;21.014;2023-10-13T01:02:53;165896.56;;;8.18;100.00
45255;BME280;30989;52.078;21.014;2023-10-13T01:05:25;165903.25;;;8.20;100.00
45255;BME280;30989;52.078;21.014;2023-10-13T01:07:51;165904.59;;;8.21;100.00
45255;BME280;30989;52.078;21.014;2023-10-13T01:10:20;165907.25;;;8.22;100.00
45255;BME280;30989;52.078;21.014;2023-10-13T01:12:51;165917.97;;;8.26;100.00
45255;BME280;30989;52.078;21.014;2023-10-13T01:15:18;165920.63;;;8.27;100.00
45255;BME280;30989;52.078;21.014;2023-10-13T01:17:46;165950.09;;;8.38;100.00
45255;BME280;30989;52.078;21.014;2023-10-13T01:20:15;165955.47;;;8.40;100.00
45255;BME280;30989;52.078;21.014;2023-10-13T01:22:51;165954.13;;;8.39;100.00
45255;BME280;30989;52.078;21.014;2023-10-13T01:25:26;165958.13;;;8.41;100.00
45255;BME280;30989;52.078;21.014;2023-10-13T01:27:52;165958.13;;;8.41;100.00
45255;BME280;30989;52.078;21.014;2023-10-13T01:30:18;165963.47;;;8.43;100.00
45255;BME280;30989;52.078;21.014;2023-10-13T01:32:51;165970.16;;;8.46;100.00
45255;BME280;30989;52.078;21.014;2023-10-13T01:35:20;165978.19;;;8.49;100.00
45255;BME280;30989;52.078;21.014;2023-10-13T01:37:51;165975.53;;;8.48;100.00
45255;BME280;30989;52.078;21.014;2023-10-13T01:40:16;165987.56;;;8.52;100.00
45255;BME280;30989;52.078;21.014;2023-10-13T01:42:46;165990.25;;;8.53;100.00
45255;BME280;30989;52.078;21.014;2023-10-13T01:45:11;165996.94;;;8.56;100.00
45255;BME280;30989;52.078;21.014;2023-10-13T01:47:38;165984.88;;;8.51;100.00
45255;BME280;30989;52.078;21.014;2023-10-13T01:50:07;165994.25;;;8.55;100.00
45255;BME280;30989;52.078;21.014;2023-10-13T01:52:40;165960.81;;;8.42;100.00
45255;BME280;30989;52.078;21.014;2023-10-13T01:55:08;165991.56;;;8.54;100.00
45255;BME280;30989;52.078;21.014;2023-10-13T01:57:35;165982.22;;;8.50;100.00
45255;BME280;30989;52.078;21.014;2023-10-13T02:00:01;166002.28;;;8.58;100.00
45255;BME280;30989;52.078;21.014;2023-10-13T02:02:37;166012.97;;;8.62;100.00
45255;BME280;30989;52.078;21.014;2023-10-13T02:05:10;166025.00;;;8.66;100.00
45255;BME280;30989;52.078;21.014;2023-10-13T02:07:35;166038.41;;;8.71;100.00
45255;BME280;30989;52.078;21.014;2023-10-13T02:10:04;166046.41;;;8.75;100.00
45255;BME280;30989;52.078;21.014;2023-10-13T02:12:31;166053.09;;;8.77;100.00
45255;BME280;30989;52.078;21.014;2023-10-13T02:15:10;166059.78;;;8.80;100.00
45255;BME280;30989;52.078;21.014;2023-10-13T02:17:45;166081.19;;;8.88;100.00
45255;BME280;30989;52.078;21.014;2023-10-13T02:20:17;166077.19;;;8.86;100.00
45255;BME280;30989;52.078;21.014;2023-10-13T02:22:43;166094.59;;;8.93;100.00
45255;BME280;30989;52.078;21.014;2023-10-13T02:25:16;166098.59;;;8.94;100.00
45255;BME280;30989;52.078;21.014;2023-10-13T02:28:00;166091.91;;;8.92;100.00
45255;BME280;30989;52.078;21.014;2023-10-13T02:30:26;166105.28;;;8.97;100.00
45255;BME280;30989;52.078;21.014;2023-10-13T02:32:56;166110.63;;;8.99;100.00
45255;BME280;30989;52.078;21.014;2023-10-13T02:35:22;166107.97;;;8.98;100.00
45255;BME280;30989;52.078;21.014;2023-10-13T02:37:56;166120.00;;;9.02;100.00
45255;BME280;30989;52.078;21.014;2023-10-13T02:40:24;166125.34;;;9.04;100.00
45255;BME280;30989;52.078;21.014;2023-10-13T02:42:49;166129.38;;;9.06;100.00
45255;BME280;30989;52.078;21.014;2023-10-13T02:45:15;166145.44;;;9.12;100.00
45255;BME280;30989;52.078;21.014;2023-10-13T02:47:40;166142.75;;;9.11;100.00
45255;BME280;30989;52.078;21.014;2023-10-13T02:50:09;166140.06;;;9.10;100.00
45255;BME280;30989;52.078;21.014;2023-10-13T02:52:38;166148.09;;;9.13;100.00
45255;BME280;30989;52.078;21.014;2023-10-13T02:55:07;166161.47;;;9.18;100.00
45255;BME280;30989;52.078;21.014;2023-10-13T02:57:39;166166.84;;;9.20;100.00
45255;BME280;30989;52.078;21.014;2023-10-13T03:00:06;166172.19;;;9.22;100.00
45255;BME280;30989;52.078;21.014;2023-10-13T03:02:38;166180.22;;;9.25;100.00
45255;BME280;30989;52.078;21.014;2023-10-13T03:05:12;166180.22;;;9.25;100.00
45255;BME280;30989;52.078;21.014;2023-10-13T03:07:39;166182.88;;;9.26;100.00
45255;BME280;30989;52.078;21.014;2023-10-13T03:10:08;166194.94;;;9.31;100.00
45255;BME280;30989;52.078;21.014;2023-10-13T03:12:38;166192.25;;;9.30;100.00
45255;BME280;30989;52.078;21.014;2023-10-13T03:15:04;166190.91;;;9.29;100.00
45255;BME280;30989;52.078;21.014;2023-10-13T03:17:47;166172.19;;;9.22;100.00
45255;BME280;30989;52.078;21.014;2023-10-13T03:20:14;166174.88;;;9.23;100.00
45255;BME280;30989;52.078;21.014;2023-10-13T03:22:44;166154.78;;;9.16;100.00
45255;BME280;30989;52.078;21.014;2023-10-13T03:25:11;166129.38;;;9.06;100.00
45255;BME280;30989;52.078;21.014;2023-10-13T03:27:38;166136.06;;;9.09;100.00
45255;BME280;30989;52.078;21.014;2023-10-13T03:30:26;166099.94;;;8.95;100.00
45255;BME280;30989;52.078;21.014;2023-10-13T03:33:01;166093.25;;;8.92;100.00
45255;BME280;30989;52.078;21.014;2023-10-13T03:35:32;166063.81;;;8.81;100.00
45255;BME280;30989;52.078;21.014;2023-10-13T03:38:04;166063.81;;;8.81;100.00
45255;BME280;30989;52.078;21.014;2023-10-13T03:40:36;166041.06;;;8.72;100.00
45255;BME280;30989;52.078;21.014;2023-10-13T03:43:02;166014.31;;;8.62;100.00
45255;BME280;30989;52.078;21.014;2023-10-13T03:48:14;166000.94;;;8.57;100.00
45255;BME280;30989;52.078;21.014;2023-10-13T03:50:53;165982.22;;;8.50;100.00
45255;BME280;30989;52.078;21.014;2023-10-13T03:53:37;165966.16;;;8.44;100.00
45255;BME280;30989;52.078;21.014;2023-10-13T03:56:18;165942.09;;;8.35;100.00
45255;BME280;30989;52.078;21.014;2023-10-13T03:59:08;165950.09;;;8.38;100.00
45255;BME280;30989;52.078;21.014;2023-10-13T04:01:44;165935.34;;;8.32;100.00
45255;BME280;30989;52.078;21.014;2023-10-13T04:04:16;165923.31;;;8.28;100.00
45255;BME280;30989;52.078;21.014;2023-10-13T04:07:00;165896.56;;;8.18;100.00
45255;BME280;30989;52.078;21.014;2023-10-13T04:09:37;165879.19;;;8.11;100.00
45255;BME280;30989;52.078;21.014;2023-10-13T04:12:12;165893.88;;;8.17;100.00
45255;BME280;30989;52.078;21.014;2023-10-13T04:14:42;165877.84;;;8.11;100.00
45255;BME280;30989;52.078;21.014;2023-10-13T04:17:27;165875.16;;;8.09;100.00
45255;BME280;30989;52.078;21.014;2023-10-13T04:19:54;165859.13;;;8.03;100.00
45255;BME280;30989;52.078;21.014;2023-10-13T04:22:36;165864.47;;;8.05;100.00
45255;BME280;30989;52.078;21.014;2023-10-13T04:25:25;165856.44;;;8.02;100.00
45255;BME280;30989;52.078;21.014;2023-10-13T04:28:15;165843.06;;;7.97;100.00
45255;BME280;30989;52.078;21.014;2023-10-13T04:30:59;165839.06;;;7.96;100.00
45255;BME280;30989;52.078;21.014;2023-10-13T04:33:32;165823.03;;;7.90;100.00
45255;BME280;30989;52.078;21.014;2023-10-13T04:36:15;165805.63;;;7.83;100.00
45255;BME280;30989;52.078;21.014;2023-10-13T04:38:59;165805.63;;;7.83;100.00
45255;BME280;30989;52.078;21.014;2023-10-13T04:41:32;165800.28;;;7.81;100.00
45255;BME280;30989;52.078;21.014;2023-10-13T04:44:12;165781.56;;;7.74;100.00
45255;BME280;30989;52.078;21.014;2023-10-13T04:46:57;165777.56;;;7.72;100.00
45255;BME280;30989;52.078;21.014;2023-10-13T04:49:28;165784.25;;;7.75;100.00
45255;BME280;30989;52.078;21.014;2023-10-13T04:51:59;165778.91;;;7.73;100.00
45255;BME280;30989;52.078;21.014;2023-10-13T04:54:30;165774.88;;;7.71;100.00
45255;BME280;30989;52.078;21.014;2023-10-13T04:57:00;165768.22;;;7.69;100.00
45255;BME280;30989;52.078;21.014;2023-10-13T04:59:44;165762.88;;;7.67;100.00
45255;BME280;30989;52.078;21.014;2023-10-13T05:02:43;165781.56;;;7.74;100.00
45255;BME280;30989;52.078;21.014;2023-10-13T05:05:27;165797.63;;;7.80;100.00
45255;BME280;30989;52.078;21.014;2023-10-13T05:08:12;165816.34;;;7.87;100.00
45255;BME280;30989;52.078;21.014;2023-10-13T05:11:14;165835.06;;;7.94;100.00
45255;BME280;30989;52.078;21.014;2023-10-13T05:13:58;165841.75;;;7.97;100.00
45255;BME280;30989;52.078;21.014;2023-10-13T05:16:42;165867.16;;;8.06;100.00
45255;BME280;30989;52.078;21.014;2023-10-13T05:19:26;165867.16;;;8.06;100.00
45255;BME280;30989;52.078;21.014;2023-10-13T05:22:10;165881.84;;;8.12;100.00
45255;BME280;30989;52.078;21.014;2023-10-13T05:25:07;165904.59;;;8.21;100.00
45255;BME280;30989;52.078;21.014;2023-10-13T05:27:51;165909.94;;;8.23;100.00
45255;BME280;30989;52.078;21.014;2023-10-13T05:30:35;165919.31;;;8.26;100.00
45255;BME280;30989;52.078;21.014;2023-10-13T05:33:19;165917.97;;;8.26;100.00
45255;BME280;30989;52.078;21.014;2023-10-13T05:36:20;165943.44;;;8.35;100.00
45255;BME280;30989;52.078;21.014;2023-10-13T05:39:04;165955.47;;;8.40;100.00
45255;BME280;30989;52.078;21.014;2023-10-13T05:41:47;165987.56;;;8.52;100.00
45255;BME280;30989;52.078;21.014;2023-10-13T05:44:31;165994.25;;;8.55;100.00
45255;BME280;30989;52.078;21.014;2023-10-13T05:47:03;166008.97;;;8.60;100.00
45255;BME280;30989;52.078;21.014;2023-10-13T05:49:47;166022.34;;;8.65;100.00
45255;BME280;30989;52.078;21.014;2023-10-13T05:52:16;166049.09;;;8.76;100.00
45255;BME280;30989;52.078;21.014;2023-10-13T05:54:46;166082.53;;;8.88;100.00
45255;BME280;30989;52.078;21.014;2023-10-13T05:57:30;166110.63;;;8.99;100.00
45255;BME280;30989;52.078;21.014;2023-10-13T06:00:14;166134.72;;;9.08;100.00
45255;BME280;30989;52.078;21.014;2023-10-13T06:02:58;166165.50;;;9.20;100.00
45255;BME280;30989;52.078;21.014;2023-10-13T06:05:42;166185.56;;;9.27;100.00
45255;BME280;30989;52.078;21.014;2023-10-13T06:08:26;166212.34;;;9.37;100.00
45255;BME280;30989;52.078;21.014;2023-10-13T06:11:09;166235.09;;;9.46;100.00
45255;BME280;30989;52.078;21.014;2023-10-13T06:13:53;166271.22;;;9.60;100.00
45255;BME280;30989;52.078;21.014;2023-10-13T06:16:37;166287.28;;;9.66;100.00
45255;BME280;30989;52.078;21.014;2023-10-13T06:19:20;166307.38;;;9.74;100.00
45255;BME280;30989;52.078;21.014;2023-10-13T06:22:04;166327.44;;;9.81;100.00
45255;BME280;30989;52.078;21.014;2023-10-13T06:24:48;166338.16;;;9.85;100.00
45255;BME280;30989;52.078;21.014;2023-10-13T06:27:32;166351.53;;;9.90;100.00
45255;BME280;30989;52.078;21.014;2023-10-13T06:30:16;166350.19;;;9.90;100.00
45255;BME280;30989;52.078;21.014;2023-10-13T06:32:43;166359.56;;;9.93;100.00
45255;BME280;30989;52.078;21.014;2023-10-13T06:35:08;166335.47;;;9.84;100.00
45255;BME280;30989;52.078;21.014;2023-10-13T06:37:34;166346.19;;;9.88;100.00
45255;BME280;30989;52.078;21.014;2023-10-13T06:40:03;166351.53;;;9.90;100.00
45255;BME280;30989;52.078;21.014;2023-10-13T06:42:51;166338.16;;;9.85;100.00
45255;BME280;30989;52.078;21.014;2023-10-13T06:45:18;166304.69;;;9.73;100.00
45255;BME280;30989;52.078;21.014;2023-10-13T06:47:44;166292.63;;;9.68;100.00
45255;BME280;30989;52.078;21.014;2023-10-13T06:50:14;166263.19;;;9.57;100.00
45255;BME280;30989;52.078;21.014;2023-10-13T06:52:45;166252.47;;;9.53;100.00
45255;BME280;30989;52.078;21.014;2023-10-13T06:55:15;166233.75;;;9.46;100.00
45255;BME280;30989;52.078;21.014;2023-10-13T06:57:56;166217.69;;;9.40;100.00
45255;BME280;30989;52.078;21.014;2023-10-13T07:00:28;166233.75;;;9.46;100.00
45255;BME280;30989;52.078;21.014;2023-10-13T07:03:02;166241.78;;;9.49;100.00
45255;BME280;30989;52.078;21.014;2023-10-13T07:05:40;166217.69;;;9.40;100.00
45255;BME280;30989;52.078;21.014;2023-10-13T07:08:09;166236.41;;;9.47;100.00
45255;BME280;30989;52.078;21.014;2023-10-13T07:10:47;166243.13;;;9.49;100.00
45255;BME280;30989;52.078;21.014;2023-10-13T07:13:29;166271.22;;;9.60;100.00
45255;BME280;30989;52.078;21.014;2023-10-13T07:15:55;166289.97;;;9.67;100.00
45255;BME280;30989;52.078;21.014;2023-10-13T07:18:27;166308.69;;;9.74;100.00
45255;BME280;30989;52.078;21.014;2023-10-13T07:21:00;166310.03;;;9.75;100.00
45255;BME280;30989;52.078;21.014;2023-10-13T07:23:37;166330.13;;;9.82;100.00
45255;BME280;30989;52.078;21.014;2023-10-13T07:26:05;166342.16;;;9.87;100.00
45255;BME280;30989;52.078;21.014;2023-10-13T07:28:31;166340.84;;;9.86;100.00
45255;BME280;30989;52.078;21.014;2023-10-13T07:31:02;166335.47;;;9.84;100.00
45255;BME280;30989;52.078;21.014;2023-10-13T07:33:28;166343.50;;;9.87;100.00
45255;BME280;30989;52.078;21.014;2023-10-13T07:36:04;166368.94;;;9.97;100.00
45255;BME280;30989;52.078;21.014;2023-10-13T07:38:46;166382.34;;;10.02;100.00
45255;BME280;30989;52.078;21.014;2023-10-13T07:41:34;166386.34;;;10.03;100.00
45255;BME280;30989;52.078;21.014;2023-10-13T07:43:59;166391.72;;;10.06;100.00
45255;BME280;30989;52.078;21.014;2023-10-13T07:46:25;166418.50;;;10.16;100.00
45255;BME280;30989;52.078;21.014;2023-10-13T07:48:57;166443.97;;;10.25;100.00
45255;BME280;30989;52.078;21.014;2023-10-13T07:51:34;166462.72;;;10.32;100.00
45255;BME280;30989;52.078;21.014;2023-10-13T07:54:10;166461.38;;;10.32;100.00
45255;BME280;30989;52.078;21.014;2023-10-13T07:56:38;166476.13;;;10.38;100.00
45255;BME280;30989;52.078;21.014;2023-10-13T07:59:05;166478.78;;;10.39;100.00
45255;BME280;30989;52.078;21.014;2023-10-13T08:01:34;166492.25;;;10.44;100.00
45255;BME280;30989;52.078;21.014;2023-10-13T08:03:59;166506.97;;;10.49;100.00
45255;BME280;30989;52.078;21.014;2023-10-13T08:06:39;166531.06;;;10.58;100.00
45255;BME280;30989;52.078;21.014;2023-10-13T08:09:08;166540.44;;;10.62;100.00
45255;BME280;30989;52.078;21.014;2023-10-13T08:11:54;166584.66;;;10.79;100.00
45255;BME280;30989;52.078;21.014;2023-10-13T08:14:20;166608.75;;;10.88;100.00
45255;BME280;30989;52.078;21.014;2023-10-13T08:16:58;166640.91;;;11.00;100.00
45255;BME280;30989;52.078;21.014;2023-10-13T08:19:29;166675.75;;;11.13;100.00
45255;BME280;30989;52.078;21.014;2023-10-13T08:22:10;166703.88;;;11.24;100.00
45255;BME280;30989;52.078;21.014;2023-10-13T08:24:46;166744.09;;;11.39;100.00
45255;BME280;30989;52.078;21.014;2023-10-13T08:27:13;166778.94;;;11.52;100.00
45255;BME280;30989;52.078;21.014;2023-10-13T08:29:57;166824.50;;;11.70;100.00
45255;BME280;30989;52.078;21.014;2023-10-13T08:32:32;166854.03;;;11.81;100.00
45255;BME280;30989;52.078;21.014;2023-10-13T08:35:00;166858.06;;;11.82;100.00
45255;BME280;30989;52.078;21.014;2023-10-13T08:37:35;166867.44;;;11.86;100.00
45255;BME280;30989;52.078;21.014;2023-10-13T08:40:16;166866.09;;;11.85;100.00
45255;BME280;30989;52.078;21.014;2023-10-13T08:43:01;166911.69;;;12.03;100.00
45255;BME280;30989;52.078;21.014;2023-10-13T08:45:28;166923.75;;;12.07;100.00
45255;BME280;30989;52.078;21.014;2023-10-13T08:47:55;166945.19;;;12.15;100.00
45255;BME280;30989;52.078;21.014;2023-10-13T08:50:42;166937.16;;;12.12;100.00
45255;BME280;30989;52.078;21.014;2023-10-13T08:55:58;166951.91;;;12.18;100.00
45255;BME280;30989;52.078;21.014;2023-10-13T08:58:43;167000.16;;;12.36;100.00
45255;BME280;30989;52.078;21.014;2023-10-13T09:01:31;167071.22;;;12.63;100.00
45255;BME280;30989;52.078;21.014;2023-10-13T09:04:25;167166.44;;;12.99;100.00
45255;BME280;30989;52.078;21.014;2023-10-13T09:07:01;167222.84;;;13.20;100.00
45255;BME280;30989;52.078;21.014;2023-10-13T09:12:24;167265.78;;;13.37;100.00
45255;BME280;30989;52.078;21.014;2023-10-13T09:15:08;167247.00;;;13.30;100.00
45255;BME280;30989;52.078;21.014;2023-10-13T09:17:45;167218.81;;;13.19;100.00
45255;BME280;30989;52.078;21.014;2023-10-13T09:20:38;167195.97;;;13.10;100.00
45255;BME280;30989;52.078;21.014;2023-10-13T09:23:14;167224.19;;;13.21;100.00
45255;BME280;30989;52.078;21.014;2023-10-13T09:26:05;167279.19;;;13.42;100.00
45255;BME280;30989;52.078;21.014;2023-10-13T09:28:37;167362.38;;;13.73;100.00
45255;BME280;30989;52.078;21.014;2023-10-13T09:31:03;167410.69;;;13.92;100.00
45255;BME280;30989;52.078;21.014;2023-10-13T09:33:33;167417.41;;;13.94;100.00
45255;BME280;30989;52.078;21.014;2023-10-13T09:36:05;167404.00;;;13.89;100.00
45255;BME280;30989;52.078;21.014;2023-10-13T09:38:36;167455.00;;;14.08;100.00
45255;BME280;30989;52.078;21.014;2023-10-13T09:41:05;167488.53;;;14.21;100.00
45255;BME280;30989;52.078;21.014;2023-10-13T09:43:49;167515.41;;;14.31;100.00
45255;BME280;30989;52.078;21.014;2023-10-13T09:46:20;167527.47;;;14.36;100.00
45255;BME280;30989;52.078;21.014;2023-10-13T09:48:49;167520.75;;;14.33;100.00
45255;BME280;30989;52.078;21.014;2023-10-13T09:51:30;167534.19;;;14.38;100.00
45255;BME280;30989;52.078;21.014;2023-10-13T09:54:13;167597.34;;;14.62;100.00
45255;BME280;30989;52.078;21.014;2023-10-13T09:56:54;167653.72;;;14.83;100.00
45255;BME280;30989;52.078;21.014;2023-10-13T09:59:24;167684.63;;;14.95;100.00
45255;BME280;30989;52.078;21.014;2023-10-13T10:02:03;167732.97;;;15.13;100.00
45255;BME280;30989;52.078;21.014;2023-10-13T10:04:57;167770.56;;;15.28;100.00
45255;BME280;30989;52.078;21.014;2023-10-13T10:07:57;167788.03;;;15.34;100.00
45255;BME280;30989;52.078;21.014;2023-10-13T10:13:47;167915.75;;;15.83;100.00
45255;BME280;30989;52.078;21.014;2023-10-13T10:16:23;168042.06;;;16.30;100.00
45255;BME280;30989;52.078;21.014;2023-10-13T10:18:59;168157.72;;;16.74;100.00
45255;BME280;30989;52.078;21.014;2023-10-13T10:21:36;168223.59;;;16.99;100.00
45255;BME280;30989;52.078;21.014;2023-10-13T10:24:13;168266.63;;;17.15;100.00
45255;BME280;30989;52.078;21.014;2023-10-13T10:26:49;168284.09;;;17.22;100.00
45255;BME280;30989;52.078;21.014;2023-10-13T10:29:14;168253.19;;;17.10;100.00
45255;BME280;30989;52.078;21.014;2023-10-13T10:31:40;168208.81;;;16.93;100.00
45255;BME280;30989;52.078;21.014;2023-10-13T10:34:13;168153.69;;;16.72;100.00
45255;BME280;30989;52.078;21.014;2023-10-13T10:36:40;168153.69;;;16.72;100.00
45255;BME280;30989;52.078;21.014;2023-10-13T10:39:08;168118.69;;;16.59;100.00
45255;BME280;30989;52.078;21.014;2023-10-13T10:41:36;168064.94;;;16.39;100.00
45255;BME280;30989;52.078;21.014;2023-10-13T10:44:14;168039.38;;;16.29;100.00
45255;BME280;30989;52.078;21.014;2023-10-13T10:47:19;168024.59;;;16.24;100.00
45255;BME280;30989;52.078;21.014;2023-10-13T10:49:56;168004.44;;;16.16;100.00
45255;BME280;30989;52.078;21.014;2023-10-13T10:52:22;167988.31;;;16.10;100.00
45255;BME280;30989;52.078;21.014;2023-10-13T10:54:58;168001.75;;;16.15;100.00
45255;BME280;30989;52.078;21.014;2023-10-13T10:57:24;168058.19;;;16.36;100.00
45255;BME280;30989;52.078;21.014;2023-10-13T10:59:54;168171.16;;;16.79;100.00
45255;BME280;30989;52.078;21.014;2023-10-13T11:02:37;168429.41;;;17.77;100.00
45255;BME280;30989;52.078;21.014;2023-10-13T11:05:03;168683.75;;;18.73;100.00
45255;BME280;30989;52.078;21.014;2023-10-13T11:07:31;168868.16;;;19.42;100.00
45255;BME280;30989;52.078;21.014;2023-10-13T11:10:07;169000.16;;;19.92;100.00
45255;BME280;30989;52.078;21.014;2023-10-13T11:12:36;169039.22;;;20.07;100.00
45255;BME280;30989;52.078;21.014;2023-10-13T11:15:05;169113.28;;;20.35;100.00
45255;BME280;30989;52.078;21.014;2023-10-13T11:17:51;169223.78;;;20.76;100.00
45255;BME280;30989;52.078;21.014;2023-10-13T11:20:31;169327.59;;;21.15;100.00
45255;BME280;30989;52.078;21.014;2023-10-13T11:23:14;169417.94;;;21.49;100.00
45255;BME280;30989;52.078;21.014;2023-10-13T11:25:40;169533.88;;;21.93;100.00
45255;BME280;30989;52.078;21.014;2023-10-13T11:28:16;169663.34;;;22.42;100.00
45255;BME280;30989;52.078;21.014;2023-10-13T11:30:46;169823.88;;;23.02;100.00
45255;BME280;30989;52.078;21.014;2023-10-13T11:33:16;169960.13;;;23.54;100.00
45255;BME280;30989;52.078;21.014;2023-10-13T11:35:44;169976.38;;;23.60;99.41
45255;BME280;30989;52.078;21.014;2023-10-13T11:38:26;170035.75;;;23.82;100.00
45255;BME280;30989;52.078;21.014;2023-10-13T11:43:47;170389.47;;;25.15;96.73
45255;BME280;30989;52.078;21.014;2023-10-13T11:46:17;170482.66;;;25.50;94.94
45255;BME280;30989;52.078;21.014;2023-10-13T11:49:06;170521.88;;;25.65;92.78
45255;BME280;30989;52.078;21.014;2023-10-13T11:51:38;170469.16;;;25.45;84.73
45255;BME280;30989;52.078;21.014;2023-10-13T11:54:04;170434.03;;;25.32;88.29
45255;BME280;30989;52.078;21.014;2023-10-13T11:56:30;170421.88;;;25.27;87.43
45255;BME280;30989;52.078;21.014;2023-10-13T11:58:56;170446.19;;;25.36;88.08
45255;BME280;30989;52.078;21.014;2023-10-13T12:01:27;170431.34;;;25.31;87.48
45255;BME280;30989;52.078;21.014;2023-10-13T12:04:11;170443.50;;;25.35;86.31
45255;BME280;30989;52.078;21.014;2023-10-13T12:06:55;170477.25;;;25.48;87.00
45255;BME280;30989;52.078;21.014;2023-10-13T12:09:39;170584.00;;;25.88;84.65
45255;BME280;30989;52.078;21.014;2023-10-13T12:12:17;170629.97;;;26.06;78.16
45255;BME280;30989;52.078;21.014;2023-10-13T12:14:43;170625.91;;;26.04;79.64
45255;BME280;30989;52.078;21.014;2023-10-13T12:17:30;170639.44;;;26.09;80.79
45255;BME280;30989;52.078;21.014;2023-10-13T12:20:02;170627.28;;;26.05;77.48
45255;BME280;30989;52.078;21.014;2023-10-13T12:22:34;170627.28;;;26.05;79.83
45255;BME280;30989;52.078;21.014;2023-10-13T12:25:11;170665.09;;;26.19;78.79
45255;BME280;30989;52.078;21.014;2023-10-13T12:28:00;170594.81;;;25.92;77.33
45255;BME280;30989;52.078;21.014;2023-10-13T12:30:48;170432.69;;;25.31;78.77
45255;BME280;30989;52.078;21.014;2023-10-13T12:33:14;170362.47;;;25.05;80.66
45255;BME280;30989;52.078;21.014;2023-10-13T12:35:56;170301.66;;;24.82;77.68
45255;BME280;30989;52.078;21.014;2023-10-13T12:38:56;170273.31;;;24.71;79.60
45255;BME280;30989;52.078;21.014;2023-10-13T12:41:33;170316.53;;;24.88;80.34
45255;BME280;30989;52.078;21.014;2023-10-13T12:44:17;170289.53;;;24.78;80.24
45255;BME280;30989;52.078;21.014;2023-10-13T12:47:01;170261.19;;;24.67;80.34
45255;BME280;30989;52.078;21.014;2023-10-13T12:49:44;170258.47;;;24.66;75.33
45255;BME280;30989;52.078;21.014;2023-10-13T12:52:10;170185.59;;;24.38;78.80
45255;BME280;30989;52.078;21.014;2023-10-13T12:54:46;170114.00;;;24.11;79.68
45255;BME280;30989;52.078;21.014;2023-10-13T12:57:32;170070.81;;;23.95;81.30
45255;BME280;30989;52.078;21.014;2023-10-13T12:59:58;170019.53;;;23.76;82.22
45255;BME280;30989;52.078;21.014;2023-10-13T13:02:24;169922.34;;;23.39;82.74
45255;BME280;30989;52.078;21.014;2023-10-13T13:04:54;169833.31;;;23.06;82.84
45255;BME280;30989;52.078;21.014;2023-10-13T13:07:26;169687.63;;;22.51;84.22
45255;BME280;30989;52.078;21.014;2023-10-13T13:09:55;169558.19;;;22.02;86.14
45255;BME280;30989;52.078;21.014;2023-10-13T13:12:24;169454.34;;;21.63;88.25
45255;BME280;30989;52.078;21.014;2023-10-13T13:14:50;169385.59;;;21.37;89.70
45255;BME280;30989;52.078;21.014;2023-10-13T13:17:21;169315.47;;;21.11;91.59
45255;BME280;30989;52.078;21.014;2023-10-13T13:19:46;169268.31;;;20.93;92.74
45255;BME280;30989;52.078;21.014;2023-10-13T13:22:12;169221.09;;;20.75;94.13
45255;BME280;30989;52.078;21.014;2023-10-13T13:24:41;169175.31;;;20.58;94.64
45255;BME280;30989;52.078;21.014;2023-10-13T13:27:11;169157.78;;;20.51;95.79
45255;BME280;30989;52.078;21.014;2023-10-13T13:29:42;169141.63;;;20.45;96.78
45255;BME280;30989;52.078;21.014;2023-10-13T13:32:08;169102.50;;;20.31;97.44